Latest Weather Observations for Tuggeranong

IDN60801

Issued at 9:35 pm EDT Saturday 1 November 2014 (issued every 30 minutes, with the page automatically refreshed every 10 minutes)

About weather observations | Map of weather stations | Latest weather observations for NSW | Other Formats
Station Details ID: 070339 Name: TUGGERANONG (ISABELLA PLAINS) AWS Lat: -35.42 Lon: 149.09 Height: 586.7 m
Data from the previous 72 hours. | See also: Recent months at Tuggeranong
Date/Time
EDT
Temp
°C
App
Temp
°C
Dew
Point
Rel
Hum
%
Delta-T
°C
Wind Press
QNH
hPa
Press
MSL
hPa
Rain
since 9 am
mm
Dir
 
Spd
km/h
Gust
km/h
Spd
kts
Gust
kts
01/09:30pm 13.3 7.6 -0.7 38 5.9 W 19 26 10 14 1010.9 1009.1 0.0
01/09:00pm 13.9 7.9 -1.3 35 6.4 W 20 37 11 20 1010.1 1008.4 0.0
01/08:30pm 14.2 9.5 0.8 40 5.9 W 15 24 8 13 1009.5 1007.7 0.0
01/08:00pm 14.6 10.0 1.5 41 5.9 W 15 24 8 13 1008.7 1006.9 0.0
01/07:30pm 15.5 9.6 1.6 39 6.3 W 22 35 12 19 1007.8 1006.0 0.0
01/07:00pm 16.1 10.4 5.1 48 5.4 WNW 24 43 13 23 1006.8 1004.9 0.0
01/06:30pm 16.9 11.5 4.6 44 6.0 W 22 37 12 20 1006.0 1004.2 0.0
01/06:00pm 17.4 12.1 5.0 44 6.2 WNW 22 35 12 19 1005.4 1003.5 0.0
01/05:42pm 17.9 11.4 4.8 42 6.5 W 28 46 15 25 1005.2 1003.3 0.0
01/05:30pm 17.9 10.5 4.1 40 6.7 W 32 46 17 25 1005.1 1003.2 0.0
01/05:00pm 18.4 11.2 4.9 41 6.7 W 32 59 17 32 1004.5 1002.7 0.0
01/04:38pm 18.9 13.2 8.3 50 5.6 W 28 48 15 26 1004.2 1002.4 0.0
01/04:30pm 18.6 13.2 9.4 55 5.0 W 28 44 15 24 1004.2 1002.4 0.0
01/04:00pm 20.0 14.8 10.1 53 5.5 W 28 41 15 22 1003.7 1001.8 0.0
01/03:30pm 19.5 14.0 10.5 56 5.0 WNW 30 44 16 24 1003.7 1001.8 0.0
01/03:00pm 19.5 14.3 11.5 60 4.5 W 30 48 16 26 1003.7 1001.8 0.0
01/02:31pm 20.6 15.6 12.1 58 4.9 WNW 30 48 16 26 1003.6 1001.7 0.0
01/02:30pm 20.4 14.9 11.9 58 4.9 WNW 32 48 17 26 1003.6 1001.7 0.0
01/02:05pm 20.0 15.2 11.7 59 4.7 WNW 28 46 15 25 1003.7 1001.8 0.0
01/02:00pm 20.4 16.9 12.1 59 4.8 WNW 22 33 12 18 1003.7 1001.8 0.0
01/01:30pm 18.4 13.6 11.7 65 3.8 W 28 44 15 24 1004.5 1002.7 0.0
01/01:01pm 23.0 16.1 8.7 40 7.8 W 35 54 19 29 1002.7 1000.9 0.0
01/01:00pm 23.3 16.4 9.0 40 7.9 W 35 52 19 28 1002.7 1000.9 0.0
01/12:32pm 24.8 18.9 9.1 37 8.7 WNW 30 52 16 28 1002.1 1000.2 0.0
01/12:30pm 24.9 19.0 9.2 37 8.8 WNW 30 46 16 25 1002.0 1000.1 0.0
01/12:00pm 24.2 18.7 11.9 46 7.2 NW 32 52 17 28 1002.5 1000.7 0.0
01/11:38am 23.4 18.2 11.5 47 6.9 WNW 30 50 16 27 1002.7 1000.9 0.0
01/11:30am 23.6 19.1 11.3 46 7.1 WNW 26 44 14 24 1002.7 1000.9 0.0
01/11:00am 22.6 19.1 12.3 52 6.0 NW 22 44 12 24 1003.1 1001.2 0.0
01/10:32am 23.4 18.7 12.1 49 6.6 NW 28 46 15 25 1003.1 1002.1 0.0
01/10:30am 23.7 19.4 12.0 48 6.8 NW 26 43 14 23 1003.1 1002.1 0.0
01/10:00am 23.2 20.3 12.2 50 6.4 NW 19 35 10 19 1003.6 1002.6 0.0
01/09:30am 22.4 19.5 12.9 55 5.6 NW 20 39 11 21 1004.6 1003.7 0.0
01/09:05am 20.8 16.3 12.5 59 4.8 WNW 28 48 15 26 1004.9 1003.9 0.0
01/09:00am 21.5 17.6 12.1 55 5.4 WNW 24 43 13 23 1005.1 1004.1 -
01/08:51am 21.4 16.7 12.0 55 5.4 WNW 28 46 15 25 1005.2 1004.2 -
01/08:49am 21.5 16.4 11.8 54 5.6 WNW 30 46 16 25 1005.2 1004.2 -
01/08:30am 20.4 18.1 11.9 58 4.9 NNW 15 24 8 13 1005.3 1004.3 -
01/08:00am 20.7 18.4 11.9 57 5.1 NNW 15 20 8 11 1005.3 1004.3 -
01/07:30am 19.6 17.2 11.4 59 4.6 N 15 22 8 12 1005.1 1004.1 -
01/07:00am 19.3 17.6 11.3 60 4.5 N 11 19 6 10 1005.3 1004.3 -
01/06:30am 19.1 17.4 11.2 60 4.4 N 11 19 6 10 1005.4 1004.4 -
01/06:00am 18.8 17.4 10.9 60 4.4 N 9 13 5 7 1005.2 1004.2 -
01/05:30am 18.6 17.6 10.9 61 4.3 N 7 13 4 7 1005.4 1004.4 -
01/02:00am 16.1 14.1 7.1 55 4.6 WNW 7 11 4 6 1006.7 1005.7 0.0
01/01:30am 14.7 14.1 7.5 62 3.7 CALM 0 0 0 0 1006.2 1005.3 0.0
01/01:00am 14.0 13.5 7.8 66 3.2 CALM 0 0 0 0 1006.6 1005.6 0.0
01/12:30am 13.7 12.9 6.6 62 3.5 CALM 0 0 0 0 1007.0 1006.0 0.0
01/12:00am 14.4 13.6 6.7 60 3.9 E 0 0 0 0 1007.2 1006.2 0.0
 
Date/Time
EDT
Temp
°C
App
Temp
°C
Dew
Point
Rel
Hum
%
Delta-T
°C
Wind Press
QNH
hPa
Press
MSL
hPa
Rain
since 9 am
mm
Dir
 
Spd
km/h
Gust
km/h
Spd
kts
Gust
kts
31/11:30pm 15.2 14.2 5.7 53 4.7 CALM 0 0 0 0 1007.4 1006.5 0.0
31/11:00pm 17.5 15.2 5.8 46 5.9 E 7 9 4 5 1007.7 1006.8 0.0
31/10:30pm 17.3 14.7 6.2 48 5.6 E 9 11 5 6 1008.0 1007.1 0.0
31/10:00pm 18.1 16.4 5.7 44 6.3 E 4 7 2 4 1008.1 1007.2 0.0
31/09:30pm 18.1 17.2 6.0 45 6.1 CALM 0 0 0 0 1008.0 1007.1 0.0
31/09:00pm 19.2 18.2 5.6 41 6.9 CALM 0 0 0 0 1007.8 1006.9 0.0
31/08:30pm 20.6 19.4 4.6 35 8.0 CALM 0 6 0 3 1007.6 1006.7 0.0
31/08:00pm 24.2 21.5 2.9 25 10.6 N 6 9 3 5 1007.7 1006.8 0.0
31/07:30pm 26.3 23.3 2.3 21 12.0 N 7 11 4 6 1007.7 1006.8 0.0
31/07:00pm 27.7 23.8 1.2 18 13.1 NNW 11 19 6 10 1007.7 1006.8 0.0
31/06:30pm 28.7 23.5 0.4 16 13.9 NW 17 26 9 14 1007.6 1006.7 0.0
31/06:00pm 29.7 23.6 0.3 15 14.5 NW 22 37 12 20 1007.8 1006.9 0.0
31/05:30pm 29.8 23.6 -0.5 14 14.7 NW 22 35 12 19 1007.8 1006.9 0.0
31/05:00pm 30.5 24.3 0.0 14 15.1 WNW 22 35 12 19 1007.6 1006.7 0.0
31/04:30pm 29.9 24.0 -0.5 14 14.8 NNW 20 39 11 21 1007.9 1007.0 0.0
31/04:00pm 31.1 25.5 1.4 15 15.1 NW 20 35 11 19 1008.0 1007.1 0.0
31/03:30pm 29.9 23.2 1.4 16 14.3 WNW 26 41 14 22 1008.5 1007.5 0.0
31/03:00pm 30.3 25.0 1.7 16 14.5 NW 19 32 10 17 1009.3 1008.4 0.0
31/02:30pm 29.9 24.6 3.0 18 13.9 NW 20 30 11 16 1009.8 1008.9 0.0
31/02:00pm 29.6 23.8 4.3 20 13.4 W 24 35 13 19 1010.5 1009.6 0.0
31/01:30pm 28.2 22.4 4.5 22 12.4 NW 24 33 13 18 1010.9 1010.0 0.0
31/01:00pm 28.8 23.4 4.3 21 12.9 NNW 22 39 12 21 1011.2 1010.3 0.0
31/12:30pm 28.3 24.9 7.5 27 11.5 NNW 15 28 8 15 1011.8 1011.0 0.0
31/12:00pm 27.4 23.8 6.8 27 11.2 NNW 15 24 8 13 1012.4 1011.5 0.0
31/11:30am 26.3 23.6 7.4 30 10.3 NNW 11 20 6 11 1012.9 1012.0 0.0
31/11:00am 24.5 21.5 5.8 30 9.8 NNW 11 20 6 11 1013.5 1012.7 0.0
31/10:30am 22.9 19.9 5.8 33 8.9 N 11 17 6 9 1014.2 1013.3 0.0
31/10:00am 21.2 19.4 7.1 40 7.4 WSW 6 9 3 5 1014.5 1013.6 0.0
31/09:30am 19.1 17.8 6.2 43 6.6 ENE 2 7 1 4 1014.7 1013.8 0.0
31/09:00am 16.7 15.3 5.3 47 5.6 N 2 6 1 3 1015.1 1014.3 0.0
31/08:30am 14.8 13.9 5.9 55 4.4 CALM 0 0 0 0 1015.3 1014.5 0.0
31/08:00am 11.8 10.9 5.9 67 2.8 CALM 0 0 0 0 1015.3 1014.5 0.0
31/07:30am 9.7 8.6 5.3 74 2.1 CALM 0 0 0 0 1015.1 1014.3 0.0
31/07:00am 7.8 6.8 5.4 85 1.1 CALM 0 0 0 0 1014.8 1014.0 0.0
31/06:30am 5.1 3.8 3.9 92 0.5 CALM 0 0 0 0 1014.4 1013.5 0.0
31/06:00am 5.2 3.9 3.9 91 0.6 CALM 0 0 0 0 1014.1 1013.2 0.0
31/05:30am 5.3 3.9 3.8 90 0.7 CALM 0 0 0 0 1014.0 1013.1 0.0
31/05:00am 5.8 4.5 4.1 89 0.8 CALM 0 0 0 0 1013.9 1013.0 0.0
31/04:30am 6.3 5.1 4.5 88 0.8 CALM 0 0 0 0 1013.9 1013.0 0.0
31/04:00am 6.8 5.6 4.8 87 0.9 CALM 0 0 0 0 1013.9 1013.0 0.0
31/03:30am 6.2 4.9 4.0 86 1.0 CALM 0 0 0 0 1014.0 1013.1 0.0
31/03:00am 6.7 5.4 4.2 84 1.1 CALM 0 0 0 0 1014.1 1013.2 0.0
31/02:30am 7.4 6.2 4.7 83 1.2 CALM 0 0 0 0 1014.2 1013.3 0.0
31/02:00am 8.1 7.0 5.2 82 1.3 CALM 0 0 0 0 1014.5 1013.6 0.0
31/01:30am 8.2 7.0 4.6 78 1.6 CALM 0 0 0 0 1014.9 1014.1 0.0
31/01:00am 9.2 8.2 5.8 79 1.6 CALM 0 0 0 0 1015.2 1014.4 0.0
31/12:30am 9.7 8.7 5.7 76 1.9 CALM 0 0 0 0 1015.3 1014.5 0.0
31/12:00am 10.0 9.0 5.6 74 2.1 CALM 0 0 0 0 1015.2 1014.4 0.0
 
Date/Time
EDT
Temp
°C
App
Temp
°C
Dew
Point
Rel
Hum
%
Delta-T
°C
Wind Press
QNH
hPa
Press
MSL
hPa
Rain
since 9 am
mm
Dir
 
Spd
km/h
Gust
km/h
Spd
kts
Gust
kts
30/11:30pm 10.0 8.8 4.8 70 2.4 CALM 0 0 0 0 1015.3 1014.5 0.0
30/11:00pm 11.5 10.6 6.0 69 2.7 CALM 0 0 0 0 1015.3 1014.5 0.0
30/10:30pm 12.4 11.3 5.1 61 3.5 CALM 0 0 0 0 1015.3 1014.5 0.0
30/10:00pm 14.5 12.0 4.8 52 4.7 E 7 9 4 5 1015.1 1014.3 0.0
30/09:30pm 15.0 12.9 5.8 54 4.5 E 6 7 3 4 1014.8 1014.0 0.0
30/09:00pm 16.2 14.1 5.8 50 5.2 ENE 6 7 3 4 1014.5 1013.6 0.0
30/08:30pm 16.8 14.6 5.4 47 5.7 E 6 9 3 5 1014.2 1013.3 0.0
30/08:00pm 19.0 17.7 5.8 42 6.7 N 2 6 1 3 1014.0 1013.1 0.0
30/07:30pm 21.7 19.0 2.9 29 9.2 WNW 6 7 3 4 1013.9 1013.0 0.0
30/07:00pm 23.5 19.6 3.4 27 10.0 WNW 13 19 7 10 1013.5 1012.7 0.0
30/06:30pm 24.2 19.7 4.0 27 10.2 WNW 17 26 9 14 1013.3 1012.5 0.0
30/06:00pm 24.9 20.5 4.6 27 10.5 WNW 17 26 9 14 1013.1 1012.2 0.0
30/05:30pm 25.1 20.3 4.8 27 10.5 WNW 19 28 10 15 1013.0 1012.1 0.0
30/05:00pm 25.7 21.0 5.3 27 10.7 WNW 19 28 10 15 1013.0 1012.1 0.0
30/04:30pm 25.6 20.2 4.7 26 10.8 NW 22 33 12 18 1012.7 1011.8 0.0
30/04:00pm 26.0 20.7 5.0 26 11.0 WNW 22 33 12 18 1012.7 1011.8 0.0
30/03:30pm 26.5 21.8 6.0 27 10.9 WNW 20 26 11 14 1012.7 1011.8 0.0
30/03:00pm 25.9 20.6 4.9 26 10.9 WNW 22 37 12 20 1012.9 1012.0 0.0
30/02:30pm 25.8 20.1 3.1 23 11.4 WNW 22 32 12 17 1013.1 1012.2 0.0
30/02:00pm 26.1 21.4 5.1 26 11.0 WNW 19 24 10 13 1013.4 1012.6 0.0
30/01:30pm 24.6 20.2 4.9 28 10.2 NW 17 26 9 14 1014.0 1013.1 0.0
30/01:00pm 24.8 21.3 5.6 29 10.1 NW 13 26 7 14 1014.1 1013.2 0.0
30/12:30pm 23.9 20.5 5.8 31 9.5 WNW 13 24 7 13 1014.5 1013.6 0.0
30/12:00pm 22.3 18.9 5.7 34 8.6 NW 13 22 7 12 1015.2 1014.4 0.0
30/11:30am 21.5 17.1 5.0 34 8.4 NW 17 28 9 15 1015.4 1014.6 0.0
30/11:00am 20.6 17.6 6.2 39 7.4 NNW 11 20 6 11 1016.0 1015.1 0.0
30/10:30am 19.2 15.7 5.6 41 6.9 NNW 13 20 7 11 1016.1 1015.2 0.0
30/10:00am 17.9 16.1 7.0 49 5.6 WNW 6 17 3 9 1016.2 1015.4 0.0
30/09:30am 14.8 14.1 6.9 59 4.0 CALM 0 0 0 0 1016.4 1015.6 0.0
30/09:00am 13.1 11.6 6.9 66 3.1 W 4 7 2 4 1016.6 1015.8 0.0
30/08:30am 11.5 10.9 7.2 75 2.1 CALM 0 0 0 0 1016.6 1015.8 0.0
30/08:00am 10.3 9.7 7.2 81 1.5 CALM 0 0 0 0 1016.4 1015.6 0.0
30/07:30am 9.1 7.9 6.5 84 1.2 W 2 7 1 4 1016.2 1015.4 0.0
30/07:00am 7.4 6.5 5.9 90 0.7 CALM 0 0 0 0 1016.1 1015.2 0.0
30/06:30am 6.9 5.1 5.4 90 0.7 WSW 4 11 2 6 1015.9 1015.0 0.0
30/06:00am 6.9 5.0 5.1 88 0.8 SSW 4 6 2 3 1015.7 1014.8 0.0
30/05:30am 6.9 4.7 5.4 90 0.7 SSW 6 9 3 5 1015.4 1014.6 0.0
30/05:00am 6.5 4.2 4.8 89 0.8 SW 6 9 3 5 1015.1 1014.3 0.0
30/04:30am 6.9 5.0 5.1 88 0.8 W 4 13 2 7 1015.1 1014.3 0.0
30/04:00am 6.5 4.9 4.3 86 1.0 SW 2 11 1 6 1015.1 1014.3 0.0
30/03:30am 7.1 4.8 4.6 84 1.1 NE 6 9 3 5 1015.2 1014.4 0.0
30/03:00am 7.6 6.4 4.7 82 1.3 CALM 0 0 0 0 1015.0 1014.2 0.0
30/02:30am 7.5 5.9 4.3 80 1.4 SSE 2 7 1 4 1015.2 1014.4 0.0
30/02:00am 8.6 7.5 5.0 78 1.7 CALM 0 0 0 0 1015.4 1014.6 0.0
30/01:30am 9.4 7.5 5.0 74 2.0 E 4 7 2 4 1015.8 1014.9 0.0
30/01:00am 9.9 7.5 5.1 72 2.2 E 7 9 4 5 1016.2 1015.4 0.0
30/12:30am 10.3 8.8 5.1 70 2.4 E 2 7 1 4 1016.5 1015.7 0.0
30/12:00am 11.3 8.6 5.8 69 2.6 E 9 11 5 6 1016.4 1015.6 0.0
 
Date/Time
EDT
Temp
°C
App
Temp
°C
Dew
Point
Rel
Hum
%
Delta-T
°C
Wind Press
QNH
hPa
Press
MSL
hPa
Rain
since 9 am
mm
Dir
 
Spd
km/h
Gust
km/h
Spd
kts
Gust
kts
29/11:30pm 11.3 9.1 5.2 66 2.9 E 6 9 3 5 1016.4 1015.6 0.0
29/11:00pm 12.5 11.3 4.7 59 3.7 CALM 0 2 0 1 1016.5 1015.7 0.0
29/10:30pm 14.9 12.0 4.9 51 4.8 W 9 13 5 7 1016.4 1015.6 0.0
29/10:00pm 16.2 13.3 4.9 47 5.5 W 9 17 5 9 1016.4 1015.6 0.0

Other Formats:

Comma delimited format used in spreadsheet applications
http://www.bom.gov.au/fwo/IDN60801/IDN60801.94925.axf

JavaScript Object Notation format (JSON) in row-major order
http://www.bom.gov.au/fwo/IDN60801/IDN60801.94925.json